Time;durP1;ratioP1;P1;durP2;ratioP2;P2;SDS_P1;SDS_P2;PMS_P1;PMS_P2;Temp;Humidity;BMP_temperature;BMP_pressure;BME280_temperature;BME280_humidity;BME280_pressure;Samples;Min_cycle;Max_cycle;Signal;HPM_P1;HPM_P2
2022/03/17 00:01:19;;;;;;;0.75;0.63;;;10.80;99.90;;;;;;5033886;28;20096;-72
2022/03/17 00:03:45;;;;;;;0.63;0.38;;;10.80;99.90;;;;;;5032526;28;20033;-72
2022/03/17 00:06:13;;;;;;;0.20;0.20;;;10.80;99.90;;;;;;5034002;28;20156;-72
2022/03/17 00:08:39;;;;;;;0.20;0.20;;;10.80;99.90;;;;;;5033509;28;20030;-72
2022/03/17 00:11:05;;;;;;;0.30;0.30;;;10.80;99.90;;;;;;5033593;28;20017;-73
2022/03/17 00:13:31;;;;;;;0.32;0.32;;;10.80;99.90;;;;;;5033498;28;20030;-73
2022/03/17 00:15:57;;;;;;;0.08;0.08;;;10.70;99.90;;;;;;5033608;28;20047;-73
2022/03/17 00:18:23;;;;;;;0.20;0.20;;;10.70;99.90;;;;;;5032791;28;20032;-73
2022/03/17 00:20:48;;;;;;;1.55;1.45;;;10.70;99.90;;;;;;5033498;28;20068;-72
2022/03/17 00:23:14;;;;;;;0.00;0.00;;;10.60;99.90;;;;;;5033616;28;20392;-72
2022/03/17 00:25:40;;;;;;;0.45;0.45;;;10.60;99.90;;;;;;5033451;28;20450;-72
2022/03/17 00:28:06;;;;;;;0.60;0.60;;;10.60;99.90;;;;;;5033730;28;20581;-72
2022/03/17 00:30:31;;;;;;;2.45;1.63;;;10.60;99.90;;;;;;5033741;28;20026;-72
2022/03/17 00:32:57;;;;;;;0.38;0.38;;;10.60;99.90;;;;;;5033505;28;20025;-72
2022/03/17 00:35:35;;;;;;;2.53;1.45;;;10.60;99.90;;;;;;5033277;28;20018;-72
2022/03/17 00:38:08;;;;;;;1.65;1.35;;;10.60;99.90;;;;;;5047339;28;20422;-73
2022/03/17 00:40:38;;;;;;;0.10;0.10;;;10.50;99.90;;;;;;5053382;28;20035;-72
2022/03/17 00:43:08;;;;;;;1.55;1.00;;;10.50;99.90;;;;;;5052549;28;20063;-73
2022/03/17 00:45:35;;;;;;;0.10;0.10;;;10.50;99.90;;;;;;5053222;28;20121;-73
2022/03/17 00:48:01;;;;;;;0.17;0.17;;;10.40;99.90;;;;;;5053121;28;20124;-72
2022/03/17 00:50:27;;;;;;;0.20;0.20;;;10.30;99.90;;;;;;5052756;28;20044;-72
2022/03/17 00:52:53;;;;;;;0.10;0.10;;;10.30;99.90;;;;;;5033907;28;20025;-73
2022/03/17 00:55:20;;;;;;;0.05;0.05;;;10.30;99.90;;;;;;5033262;28;20469;-72
2022/03/17 00:57:46;;;;;;;0.10;0.10;;;10.20;99.90;;;;;;5033314;28;20099;-72
2022/03/17 01:00:16;;;;;;;0.38;0.38;;;10.20;99.90;;;;;;5033154;28;20487;-73
2022/03/17 01:02:48;;;;;;;1.02;0.47;;;10.10;99.90;;;;;;5065161;28;20034;-72
2022/03/17 01:05:14;;;;;;;0.20;0.20;;;10.10;99.90;;;;;;5033135;28;20032;-72
2022/03/17 01:07:40;;;;;;;0.10;0.10;;;10.20;99.90;;;;;;5033351;28;20423;-73
2022/03/17 01:10:08;;;;;;;0.30;0.30;;;10.10;99.90;;;;;;5033215;28;20025;-72
2022/03/17 01:12:34;;;;;;;0.38;0.38;;;10.10;99.90;;;;;;5036303;28;20065;-73
2022/03/17 01:15:01;;;;;;;0.20;0.20;;;10.10;99.90;;;;;;5037222;28;20100;-73
2022/03/17 01:17:27;;;;;;;1.88;0.82;;;10.10;99.90;;;;;;5036884;28;20036;-73
2022/03/17 01:19:53;;;;;;;0.32;0.32;;;10.10;99.90;;;;;;5036822;28;20025;-73
2022/03/17 01:22:21;;;;;;;0.10;0.10;;;10.00;99.90;;;;;;5035653;28;20056;-73
2022/03/17 01:24:49;;;;;;;1.20;0.80;;;10.00;99.90;;;;;;5036727;28;20071;-73
2022/03/17 01:27:15;;;;;;;0.22;0.22;;;10.00;99.90;;;;;;5036280;28;20049;-73
2022/03/17 01:29:43;;;;;;;0.70;0.40;;;10.00;99.90;;;;;;5036800;28;20017;-73
2022/03/17 01:32:09;;;;;;;0.10;0.10;;;10.00;99.90;;;;;;5036853;28;20494;-73
2022/03/17 01:34:35;;;;;;;0.10;0.10;;;10.00;99.90;;;;;;5036442;28;20040;-73
2022/03/17 01:37:01;;;;;;;0.00;0.00;;;10.00;99.90;;;;;;5042353;28;20109;-73
2022/03/17 01:39:27;;;;;;;0.20;0.20;;;10.00;99.90;;;;;;5056606;28;20064;-73
2022/03/17 01:41:57;;;;;;;0.30;0.30;;;10.00;99.90;;;;;;5057210;28;20515;-73
2022/03/17 01:44:23;;;;;;;0.10;0.10;;;9.90;99.90;;;;;;5055419;28;20043;-73
2022/03/17 01:49:36;;;;;;;0.20;0.20;;;9.90;99.90;;;;;;5056290;28;20075;-72
2022/03/17 01:52:03;;;;;;;0.10;0.10;;;9.90;99.90;;;;;;5056141;28;20017;-73
2022/03/17 01:54:28;;;;;;;5.10;1.02;;;9.90;99.90;;;;;;5054538;28;20021;-73
2022/03/17 01:56:54;;;;;;;0.10;0.10;;;9.80;99.90;;;;;;5056145;28;20021;-72
2022/03/17 01:59:21;;;;;;;3.15;0.28;;;9.80;99.90;;;;;;5055887;28;20102;-73
2022/03/17 02:01:48;;;;;;;0.00;0.00;;;9.80;99.90;;;;;;5056320;28;20036;-73
2022/03/17 02:04:14;;;;;;;0.00;0.00;;;9.70;99.90;;;;;;5055584;28;20392;-72
2022/03/17 02:06:40;;;;;;;2.95;0.45;;;9.70;99.90;;;;;;5056044;28;20036;-73
2022/03/17 02:09:06;;;;;;;3.05;1.30;;;9.70;99.90;;;;;;5054257;28;20021;-73
2022/03/17 02:14:22;;;;;;;0.10;0.10;;;9.60;99.90;;;;;;5056258;28;20467;-73
2022/03/17 02:16:52;;;;;;;0.43;0.40;;;9.70;99.90;;;;;;5056079;28;20070;-73
2022/03/17 02:19:22;;;;;;;0.43;0.43;;;9.60;99.90;;;;;;5054492;28;20033;-73
2022/03/17 02:21:49;;;;;;;3.92;1.95;;;9.60;99.90;;;;;;5055239;28;20025;-72
2022/03/17 02:27:01;;;;;;;1.02;0.95;;;9.60;99.90;;;;;;5055415;28;20114;-73
2022/03/17 02:29:26;;;;;;;0.90;0.90;;;9.50;99.90;;;;;;5051892;28;20087;-72
2022/03/17 02:31:52;;;;;;;7.72;1.13;;;9.50;99.90;;;;;;5035669;28;20021;-72
2022/03/17 02:34:19;;;;;;;0.40;0.40;;;9.50;99.90;;;;;;5035847;28;20065;-73
2022/03/17 02:36:49;;;;;;;0.30;0.30;;;9.50;99.90;;;;;;5038901;28;20108;-72
2022/03/17 02:39:16;;;;;;;0.05;0.05;;;9.50;99.90;;;;;;5054545;28;20017;-72
2022/03/17 02:41:42;;;;;;;0.68;0.45;;;9.50;99.90;;;;;;5055317;28;20161;-73
2022/03/17 02:44:09;;;;;;;0.40;0.40;;;9.40;99.90;;;;;;5054590;28;20044;-72
2022/03/17 02:46:34;;;;;;;0.30;0.30;;;9.40;99.90;;;;;;5055488;28;20021;-73
2022/03/17 02:49:00;;;;;;;0.20;0.20;;;9.40;99.90;;;;;;5055072;28;20519;-72
2022/03/17 02:51:26;;;;;;;0.63;0.63;;;9.40;99.90;;;;;;5055486;28;20021;-72
2022/03/17 02:53:52;;;;;;;0.20;0.20;;;9.30;99.90;;;;;;5055637;28;20024;-72
2022/03/17 02:56:17;;;;;;;1.75;0.55;;;9.30;99.90;;;;;;5054872;28;20028;-72
2022/03/17 02:58:43;;;;;;;0.60;0.50;;;9.30;99.90;;;;;;5054829;28;20024;-72
2022/03/17 03:01:09;;;;;;;0.00;0.00;;;9.20;99.90;;;;;;5054956;28;20021;-74
2022/03/17 03:03:35;;;;;;;0.20;0.20;;;9.20;99.90;;;;;;5055077;28;20498;-72
2022/03/17 03:06:01;;;;;;;2.60;1.33;;;9.20;99.90;;;;;;5055182;28;20111;-73
2022/03/17 03:08:27;;;;;;;0.40;0.40;;;9.10;99.90;;;;;;5054681;28;20104;-72
2022/03/17 03:10:53;;;;;;;0.25;0.25;;;9.10;99.90;;;;;;5054848;28;20071;-72
2022/03/17 03:13:19;;;;;;;0.10;0.10;;;9.10;99.90;;;;;;5054009;28;20021;-73
2022/03/17 03:15:45;;;;;;;0.15;0.15;;;9.00;99.90;;;;;;5054748;28;20021;-73
2022/03/17 03:18:11;;;;;;;0.20;0.20;;;9.00;99.90;;;;;;5054511;28;20523;-72
2022/03/17 03:20:38;;;;;;;1.00;0.90;;;9.00;99.90;;;;;;5054520;28;20032;-72
2022/03/17 03:23:04;;;;;;;0.80;0.63;;;9.00;99.90;;;;;;5054623;28;20403;-73
2022/03/17 03:25:30;;;;;;;0.00;0.00;;;9.00;99.90;;;;;;5054471;28;20219;-73
2022/03/17 03:27:55;;;;;;;0.17;0.10;;;9.00;99.90;;;;;;5054316;28;20125;-72
2022/03/17 03:30:22;;;;;;;4.28;1.40;;;8.90;99.90;;;;;;5043008;28;20074;-71
2022/03/17 03:32:47;;;;;;;0.00;0.00;;;8.90;99.90;;;;;;5034382;28;20025;-73
2022/03/17 03:37:58;;;;;;;0.70;0.17;;;8.90;99.90;;;;;;5047831;28;20044;-71
2022/03/17 03:40:24;;;;;;;0.20;0.20;;;8.90;99.90;;;;;;5053878;28;20403;-73
2022/03/17 03:42:50;;;;;;;0.00;0.00;;;8.80;99.90;;;;;;5054137;28;20049;-72
2022/03/17 03:45:16;;;;;;;0.00;0.00;;;8.80;99.90;;;;;;5053590;28;20025;-72
2022/03/17 03:47:42;;;;;;;0.52;0.52;;;8.80;99.90;;;;;;5053570;28;20068;-72
2022/03/17 03:50:09;;;;;;;0.00;0.00;;;8.80;99.90;;;;;;5053835;28;20373;-72
2022/03/17 03:52:35;;;;;;;0.00;0.00;;;8.70;99.90;;;;;;5053863;28;20021;-72
2022/03/17 03:55:00;;;;;;;0.00;0.00;;;8.70;99.90;;;;;;5053881;28;20546;-72
2022/03/17 03:57:26;;;;;;;0.22;0.22;;;8.70;99.90;;;;;;5053957;28;20025;-72
2022/03/17 03:59:52;;;;;;;0.00;0.00;;;8.70;99.90;;;;;;5053987;28;20078;-72
2022/03/17 04:02:18;;;;;;;0.10;0.10;;;8.70;99.90;;;;;;5054461;28;20025;-72
2022/03/17 04:04:44;;;;;;;0.00;0.00;;;8.60;99.90;;;;;;5054211;28;20013;-72
2022/03/17 04:07:11;;;;;;;0.00;0.00;;;8.60;99.90;;;;;;5053967;28;20078;-72
2022/03/17 04:09:41;;;;;;;0.00;0.00;;;8.60;99.90;;;;;;5053561;28;20112;-72
2022/03/17 04:12:14;;;;;;;0.10;0.10;;;8.60;99.90;;;;;;5053432;28;20013;-72
2022/03/17 04:14:40;;;;;;;;;;;8.60;99.90;;;;;;5053753;28;20082;-72
2022/03/17 04:17:06;;;;;;;0.57;0.57;;;8.50;99.90;;;;;;5053230;28;19905;-72
2022/03/17 04:19:31;;;;;;;0.00;0.00;;;8.50;99.90;;;;;;5053440;28;20428;-72
2022/03/17 04:21:57;;;;;;;0.28;0.28;;;8.50;99.90;;;;;;5053644;28;20032;-73
2022/03/17 04:24:23;;;;;;;1.02;0.55;;;8.50;99.90;;;;;;5052779;28;20396;-72
2022/03/17 04:26:50;;;;;;;1.15;0.80;;;8.50;99.90;;;;;;5053352;28;20039;-72
2022/03/17 04:29:16;;;;;;;0.28;0.28;;;8.40;99.90;;;;;;5051376;28;20028;-72
2022/03/17 04:31:43;;;;;;;6.20;1.65;;;8.40;99.90;;;;;;5033610;28;20032;-73
2022/03/17 04:34:10;;;;;;;0.00;0.00;;;8.40;99.90;;;;;;5033887;28;20088;-72
2022/03/17 04:36:36;;;;;;;0.35;0.35;;;8.40;99.90;;;;;;5035449;28;20021;-72
2022/03/17 04:39:04;;;;;;;0.60;0.20;;;8.40;99.90;;;;;;5053373;28;20035;-73
2022/03/17 04:41:30;;;;;;;0.40;0.40;;;8.40;99.90;;;;;;5053242;28;20070;-72
2022/03/17 04:43:56;;;;;;;0.40;0.40;;;8.40;99.90;;;;;;5053348;28;20484;-72
2022/03/17 04:46:22;;;;;;;0.05;0.05;;;8.30;99.90;;;;;;5052266;28;20029;-72
2022/03/17 04:48:48;;;;;;;0.00;0.00;;;8.30;99.90;;;;;;5053174;28;20021;-72
2022/03/17 04:51:14;;;;;;;0.38;0.20;;;8.30;99.90;;;;;;5052973;28;20024;-73
2022/03/17 04:53:40;;;;;;;0.00;0.00;;;8.30;99.90;;;;;;5053095;28;20025;-72
2022/03/17 04:56:08;;;;;;;0.10;0.10;;;8.30;99.90;;;;;;5052964;28;20029;-72
2022/03/17 04:58:36;;;;;;;0.10;0.10;;;8.30;99.90;;;;;;5051962;28;20025;-73
2022/03/17 05:01:05;;;;;;;0.85;0.45;;;8.30;99.90;;;;;;5053135;28;20033;-72
2022/03/17 05:03:32;;;;;;;4.43;0.28;;;8.20;99.90;;;;;;5053021;28;20228;-72
2022/03/17 05:05:58;;;;;;;0.55;0.45;;;8.30;99.90;;;;;;5053048;28;20079;-73
2022/03/17 05:08:24;;;;;;;2.45;0.82;;;8.20;99.90;;;;;;5052626;28;20480;-72
2022/03/17 05:10:52;;;;;;;0.10;0.10;;;8.20;99.90;;;;;;5052494;28;20029;-72
2022/03/17 05:13:19;;;;;;;0.00;0.00;;;8.20;99.90;;;;;;5052925;28;20453;-72
2022/03/17 05:15:46;;;;;;;0.10;0.10;;;8.20;99.90;;;;;;5053392;28;20071;-72
2022/03/17 05:18:12;;;;;;;0.25;0.25;;;8.20;99.90;;;;;;5053060;28;20566;-72
2022/03/17 05:20:43;;;;;;;0.00;0.00;;;8.20;99.90;;;;;;5052741;28;20024;-72
2022/03/17 05:23:13;;;;;;;0.38;0.38;;;8.20;99.90;;;;;;5051455;28;20112;-72
2022/03/17 05:25:42;;;;;;;3.08;0.90;;;8.20;99.90;;;;;;5051203;28;20037;-73
2022/03/17 05:28:08;;;;;;;1.75;1.65;;;8.20;99.90;;;;;;5052673;28;20056;-73
2022/03/17 05:30:35;;;;;;;0.00;0.00;;;8.10;99.90;;;;;;5039714;28;20391;-72
2022/03/17 05:33:05;;;;;;;0.00;0.00;;;8.10;99.90;;;;;;5032144;28;20420;-72
2022/03/17 05:35:31;;;;;;;0.20;0.20;;;8.20;99.90;;;;;;5031449;28;20044;-72
2022/03/17 05:37:57;;;;;;;0.00;0.00;;;8.10;99.90;;;;;;5046139;28;20103;-73
2022/03/17 05:40:23;;;;;;;0.75;0.75;;;8.10;99.90;;;;;;5052421;28;20109;-72
2022/03/17 05:42:53;;;;;;;2.80;1.40;;;8.10;99.90;;;;;;5052543;28;20111;-72
2022/03/17 05:45:20;;;;;;;0.00;0.00;;;8.10;99.90;;;;;;5052755;28;20025;-72
2022/03/17 05:47:51;;;;;;;0.28;0.28;;;8.10;99.90;;;;;;5052051;28;20399;-73
2022/03/17 05:50:20;;;;;;;0.00;0.00;;;8.10;99.90;;;;;;5052251;28;20021;-72
2022/03/17 05:52:46;;;;;;;0.00;0.00;;;8.10;99.90;;;;;;5052665;28;20025;-72
2022/03/17 05:55:13;;;;;;;0.10;0.10;;;8.10;99.90;;;;;;5052724;28;20556;-72
2022/03/17 05:57:41;;;;;;;0.10;0.10;;;8.10;99.90;;;;;;5053810;28;20033;-72
2022/03/17 06:00:09;;;;;;;0.10;0.10;;;8.00;99.90;;;;;;5056337;28;20032;-72
2022/03/17 06:02:35;;;;;;;0.57;0.57;;;8.00;99.90;;;;;;5055848;28;20056;-73
2022/03/17 06:05:02;;;;;;;0.10;0.10;;;8.00;99.90;;;;;;5053167;28;20027;-72
2022/03/17 06:07:37;;;;;;;0.10;0.10;;;8.00;99.90;;;;;;5054964;28;20033;-73
2022/03/17 06:10:05;;;;;;;0.10;0.10;;;8.00;99.90;;;;;;5053907;28;20017;-72
2022/03/17 06:12:31;;;;;;;0.10;0.10;;;8.00;99.90;;;;;;5055634;28;20075;-73
2022/03/17 06:14:57;;;;;;;0.20;0.20;;;8.00;99.90;;;;;;5055507;28;20020;-72
2022/03/17 06:17:23;;;;;;;9.85;2.05;;;7.90;99.90;;;;;;5055509;28;20104;-72
2022/03/17 06:19:50;;;;;;;0.20;0.20;;;7.90;99.90;;;;;;5055686;28;20476;-72
2022/03/17 06:22:15;;;;;;;24.20;0.73;;;7.90;99.90;;;;;;5055755;28;20459;-74
2022/03/17 06:24:44;;;;;;;0.43;0.43;;;7.90;99.90;;;;;;5054112;28;20049;-72
2022/03/17 06:27:10;;;;;;;0.20;0.20;;;7.90;99.90;;;;;;5055509;28;20028;-72
2022/03/17 06:29:36;;;;;;;0.45;0.45;;;7.90;99.90;;;;;;5055463;28;20104;-73
2022/03/17 06:32:01;;;;;;;0.57;0.57;;;8.00;99.90;;;;;;5055555;28;20061;-72
2022/03/17 06:34:27;;;;;;;0.40;0.40;;;7.90;99.90;;;;;;5055449;28;20033;-72
2022/03/17 06:36:53;;;;;;;0.08;0.08;;;7.90;99.90;;;;;;5054729;28;20146;-74
2022/03/17 06:39:19;;;;;;;4.78;0.73;;;7.90;99.90;;;;;;5054576;28;20108;-73
2022/03/17 06:41:44;;;;;;;1.33;0.95;;;7.90;99.90;;;;;;5054635;28;20057;-73
2022/03/17 06:44:10;;;;;;;1.25;1.05;;;7.90;99.90;;;;;;5054382;28;20079;-72
2022/03/17 06:46:35;;;;;;;0.00;0.00;;;7.90;99.90;;;;;;5050152;28;20082;-72
2022/03/17 06:49:01;;;;;;;0.00;0.00;;;7.90;99.90;;;;;;5053697;28;20471;-73
2022/03/17 06:51:27;;;;;;;0.10;0.10;;;7.90;99.90;;;;;;5052202;28;20029;-73
2022/03/17 06:53:52;;;;;;;0.20;0.20;;;7.90;99.90;;;;;;5054294;28;20017;-73
2022/03/17 06:56:18;;;;;;;0.20;0.20;;;7.90;99.90;;;;;;5053880;28;20025;-73
2022/03/17 06:58:43;;;;;;;3.83;1.00;;;7.90;99.90;;;;;;5053898;28;20029;-72
2022/03/17 07:01:09;;;;;;;0.65;0.65;;;7.90;99.90;;;;;;5050377;28;20508;-73
2022/03/17 07:03:35;;;;;;;1.75;1.27;;;7.90;99.90;;;;;;5051886;28;20041;-74
2022/03/17 07:06:00;;;;;;;2.22;0.75;;;8.00;99.90;;;;;;5052846;28;20149;-73
2022/03/17 07:08:26;;;;;;;0.00;0.00;;;7.90;99.90;;;;;;5053386;28;20029;-73
2022/03/17 07:10:51;;;;;;;0.73;0.73;;;8.00;99.90;;;;;;5045901;28;20043;-72
2022/03/17 07:13:17;;;;;;;28.35;1.08;;;8.00;99.90;;;;;;5048796;28;20033;-73
2022/03/17 07:15:43;;;;;;;0.22;0.22;;;8.00;99.90;;;;;;5051963;28;20064;-73
2022/03/17 07:18:08;;;;;;;2.10;0.63;;;8.00;99.90;;;;;;5051924;28;20033;-74
2022/03/17 07:20:34;;;;;;;0.00;0.00;;;8.00;99.90;;;;;;5052855;28;20506;-74
2022/03/17 07:23:00;;;;;;;0.10;0.10;;;8.00;99.90;;;;;;5051043;28;20503;-74
2022/03/17 07:25:26;;;;;;;0.10;0.10;;;8.10;99.90;;;;;;5052280;28;20492;-72
2022/03/17 07:27:51;;;;;;;0.00;0.00;;;8.10;99.90;;;;;;5052436;28;20068;-73
2022/03/17 07:30:20;;;;;;;1.67;0.93;;;8.10;99.90;;;;;;5043609;28;20044;-72
2022/03/17 07:32:48;;;;;;;0.00;0.00;;;8.10;99.90;;;;;;5038915;28;20025;-73
2022/03/17 07:35:14;;;;;;;0.00;0.00;;;8.10;99.90;;;;;;5044448;28;20400;-72
2022/03/17 07:37:41;;;;;;;0.10;0.10;;;8.10;99.90;;;;;;5052710;28;20128;-72
2022/03/17 07:40:07;;;;;;;0.25;0.25;;;8.20;99.90;;;;;;5034032;28;20057;-73
2022/03/17 07:42:33;;;;;;;1.98;1.17;;;8.20;99.90;;;;;;5051221;28;20040;-73
2022/03/17 07:44:59;;;;;;;0.05;0.05;;;8.20;99.90;;;;;;5045673;28;20022;-73
2022/03/17 07:47:25;;;;;;;3.45;1.75;;;8.20;99.90;;;;;;5036920;28;20352;-73
2022/03/17 07:49:52;;;;;;;0.00;0.00;;;8.20;99.90;;;;;;5044949;28;20021;-72
2022/03/17 07:52:18;;;;;;;0.00;0.00;;;8.30;99.90;;;;;;5046078;28;20519;-73
2022/03/17 07:54:45;;;;;;;0.05;0.05;;;8.30;99.90;;;;;;5041809;28;20068;-72
2022/03/17 07:57:11;;;;;;;0.52;0.52;;;8.40;99.90;;;;;;5045570;28;20030;-73
2022/03/17 07:59:38;;;;;;;0.20;0.20;;;8.40;99.90;;;;;;5040860;28;20423;-73
2022/03/17 08:02:04;;;;;;;0.30;0.30;;;8.40;99.90;;;;;;5045140;28;20032;-73
2022/03/17 08:04:30;;;;;;;0.08;0.08;;;8.40;99.90;;;;;;5049922;28;20029;-72
2022/03/17 08:06:57;;;;;;;0.05;0.05;;;8.50;99.90;;;;;;5051425;28;20081;-73
2022/03/17 08:09:24;;;;;;;0.63;0.57;;;8.50;99.90;;;;;;5050487;28;20136;-72
2022/03/17 08:11:50;;;;;;;2.65;1.70;;;8.50;99.90;;;;;;5050887;28;20067;-73
2022/03/17 08:14:16;;;;;;;0.65;0.55;;;8.50;99.90;;;;;;5046955;28;20419;-73
2022/03/17 08:16:46;;;;;;;0.00;0.00;;;8.60;99.90;;;;;;5050293;28;20037;-72
2022/03/17 08:19:12;;;;;;;0.10;0.10;;;8.60;99.90;;;;;;5050007;28;20029;-75
2022/03/17 08:21:40;;;;;;;0.20;0.20;;;8.70;99.90;;;;;;5049636;28;20103;-73
2022/03/17 08:24:07;;;;;;;0.45;0.43;;;8.70;99.90;;;;;;5050974;28;20056;-74
2022/03/17 08:26:34;;;;;;;0.00;0.00;;;8.80;99.90;;;;;;5049358;28;20025;-73
2022/03/17 08:29:01;;;;;;;2.65;1.42;;;8.80;99.90;;;;;;5037650;28;20052;-73
2022/03/17 08:31:27;;;;;;;0.00;0.00;;;8.90;99.90;;;;;;5047407;28;20450;-73
2022/03/17 08:33:56;;;;;;;3.10;1.45;;;8.90;99.90;;;;;;5046061;28;20062;-74
2022/03/17 08:36:23;;;;;;;0.00;0.00;;;9.00;99.90;;;;;;5045773;28;20032;-73
2022/03/17 08:38:50;;;;;;;0.00;0.00;;;9.00;99.90;;;;;;5043460;28;20378;-73
2022/03/17 08:41:15;;;;;;;0.00;0.00;;;9.00;99.90;;;;;;5040629;28;20388;-73
2022/03/17 08:43:41;;;;;;;0.15;0.15;;;9.10;99.90;;;;;;5047236;28;20053;-72
2022/03/17 08:51:35;;;;;;;0.40;0.32;;;9.20;99.90;;;;;;5050431;28;20029;-73
2022/03/17 08:54:01;;;;;;;0.68;0.68;;;9.30;99.90;;;;;;5040013;28;20017;-73
2022/03/17 08:56:28;;;;;;;0.05;0.05;;;9.40;99.90;;;;;;5046122;28;20021;-73
2022/03/17 08:58:55;;;;;;;0.10;0.10;;;9.40;99.90;;;;;;5047507;28;20022;-73
2022/03/17 09:01:20;;;;;;;1.35;0.73;;;9.40;99.90;;;;;;5050168;28;20717;-73
2022/03/17 09:03:46;;;;;;;0.05;0.05;;;9.40;99.90;;;;;;5043958;28;20053;-73
2022/03/17 09:06:12;;;;;;;0.20;0.20;;;9.40;99.90;;;;;;5049117;28;20048;-73
2022/03/17 09:08:41;;;;;;;0.10;0.10;;;9.40;99.90;;;;;;5046360;28;20601;-74
2022/03/17 09:11:07;;;;;;;2.13;0.85;;;9.50;99.90;;;;;;5049711;28;20025;-74
2022/03/17 09:13:34;;;;;;;3.13;1.58;;;9.60;99.90;;;;;;5049189;28;20223;-74
2022/03/17 09:15:59;;;;;;;0.13;0.13;;;9.80;99.90;;;;;;5048142;28;20017;-74
2022/03/17 09:18:27;;;;;;;0.00;0.00;;;9.80;99.90;;;;;;5047984;28;20029;-74
2022/03/17 09:20:52;;;;;;;0.55;0.55;;;9.90;99.90;;;;;;5049626;28;20389;-74
2022/03/17 09:23:18;;;;;;;0.05;0.05;;;10.00;99.90;;;;;;5049658;28;20048;-74
2022/03/17 09:25:44;;;;;;;1.65;0.73;;;9.90;99.90;;;;;;5049823;28;20017;-74
2022/03/17 09:28:10;;;;;;;0.40;0.40;;;9.90;99.90;;;;;;5050948;28;20037;-74
2022/03/17 09:30:36;;;;;;;0.10;0.10;;;9.90;99.90;;;;;;5051111;28;20021;-74
2022/03/17 09:33:03;;;;;;;1.17;0.43;;;9.90;99.90;;;;;;5051803;28;20114;-74
2022/03/17 09:35:29;;;;;;;0.00;0.00;;;9.90;99.90;;;;;;5053939;28;20753;-74
2022/03/17 09:37:55;;;;;;;0.52;0.52;;;10.00;99.90;;;;;;5052368;28;20032;-73
2022/03/17 09:40:20;;;;;;;0.55;0.55;;;10.00;99.90;;;;;;5053960;28;20032;-74
2022/03/17 09:42:47;;;;;;;0.03;0.03;;;10.20;99.90;;;;;;5052156;28;20408;-74
2022/03/17 09:45:14;;;;;;;1.20;0.45;;;10.20;99.90;;;;;;5053287;28;20024;-74
2022/03/17 09:47:42;;;;;;;1.23;0.90;;;10.20;99.90;;;;;;5051018;28;20025;-74
2022/03/17 09:50:10;;;;;;;0.63;0.63;;;10.20;99.90;;;;;;5051005;28;20029;-74
2022/03/17 09:52:39;;;;;;;3.30;1.88;;;10.20;99.90;;;;;;5050062;28;20020;-74
2022/03/17 09:55:07;;;;;;;0.10;0.10;;;10.20;99.90;;;;;;5042012;28;20025;-74
2022/03/17 09:57:33;;;;;;;0.32;0.32;;;10.30;99.90;;;;;;5053058;28;20036;-73
2022/03/17 09:59:58;;;;;;;0.10;0.10;;;10.50;99.90;;;;;;5053574;28;20041;-73
2022/03/17 10:02:25;;;;;;;0.40;0.40;;;10.50;99.90;;;;;;5053095;28;20032;-74
2022/03/17 10:04:51;;;;;;;3.42;1.33;;;10.60;99.90;;;;;;5050642;28;20526;-74
2022/03/17 10:07:22;;;;;;;0.55;0.47;;;10.50;99.90;;;;;;5052795;28;20021;-74
2022/03/17 10:09:49;;;;;;;0.50;0.50;;;10.60;99.90;;;;;;5052676;28;20029;-74
2022/03/17 10:12:20;;;;;;;1.10;0.98;;;10.80;99.90;;;;;;5052135;28;20032;-73
2022/03/17 10:14:53;;;;;;;12.75;1.85;;;10.80;99.90;;;;;;5049131;28;20109;-73
2022/03/17 10:17:39;;;;;;;6.05;1.38;;;10.90;99.90;;;;;;5048536;28;20025;-73
2022/03/17 10:20:22;;;;;;;0.13;0.13;;;10.80;99.90;;;;;;5049197;28;20076;-72
2022/03/17 10:22:52;;;;;;;;;;;10.90;99.90;;;;;;5038973;28;20028;-72
2022/03/17 10:25:26;;;;;;;0.47;0.43;;;10.90;99.90;;;;;;5049642;28;19908;-73
2022/03/17 10:27:56;;;;;;;0.13;0.13;;;10.90;99.90;;;;;;5050579;28;20306;-72
2022/03/17 10:30:23;;;;;;;0.47;0.47;;;11.10;99.90;;;;;;5043168;28;20040;-73
2022/03/17 10:33:04;;;;;;;0.10;0.10;;;11.20;99.90;;;;;;5051792;28;20171;-71
2022/03/17 10:35:35;;;;;;;0.20;0.10;;;11.10;99.90;;;;;;5043687;28;20515;-72
2022/03/17 10:38:17;;;;;;;0.65;0.60;;;11.00;99.90;;;;;;5050251;28;20404;-74
2022/03/17 10:40:45;;;;;;;1.13;0.47;;;11.10;99.90;;;;;;5048434;28;20179;-73
2022/03/17 10:43:18;;;;;;;0.00;0.00;;;11.00;99.90;;;;;;5041294;28;20045;-73
2022/03/17 10:45:44;;;;;;;0.10;0.10;;;11.00;99.90;;;;;;5049205;28;20035;-73
2022/03/17 10:48:10;;;;;;;1.27;1.00;;;11.00;99.90;;;;;;5049821;28;20116;-73
2022/03/17 10:50:43;;;;;;;0.00;0.00;;;11.00;99.90;;;;;;5048827;28;20116;-73
2022/03/17 10:53:10;;;;;;;0.15;0.15;;;10.90;99.90;;;;;;5049634;28;20361;-74
2022/03/17 10:55:37;;;;;;;1.35;0.50;;;11.10;99.90;;;;;;5040721;28;20053;-73
2022/03/17 10:58:19;;;;;;;0.00;0.00;;;11.10;99.90;;;;;;5045140;28;20021;-74
2022/03/17 11:01:11;;;;;;;0.52;0.52;;;11.10;99.90;;;;;;5044587;28;20025;-74
2022/03/17 11:03:36;;;;;;;0.00;0.00;;;10.90;99.90;;;;;;5038466;28;20094;-75
2022/03/17 11:06:06;;;;;;;2.00;1.05;;;11.00;99.90;;;;;;5046444;28;20531;-74
2022/03/17 11:08:32;;;;;;;0.73;0.73;;;11.10;99.90;;;;;;5048159;28;20029;-73
2022/03/17 11:10:58;;;;;;;0.22;0.22;;;11.00;99.90;;;;;;5043212;28;20514;-74
2022/03/17 11:13:24;;;;;;;0.00;0.00;;;11.10;99.90;;;;;;5030397;28;20039;-74
2022/03/17 11:16:08;;;;;;;0.25;0.20;;;11.10;99.90;;;;;;5049182;28;20100;-74
2022/03/17 11:18:35;;;;;;;;;;;11.10;99.90;;;;;;5052835;28;20391;-74
2022/03/17 11:21:25;;;;;;;0.32;0.20;;;11.00;99.90;;;;;;5046458;28;19920;-74
2022/03/17 11:23:56;;;;;;;0.00;0.00;;;11.00;99.90;;;;;;5034846;28;20036;-74
2022/03/17 11:26:37;;;;;;;0.55;0.40;;;11.00;99.90;;;;;;5046124;28;20116;-74
2022/03/17 11:29:24;;;;;;;0.55;0.25;;;11.20;99.90;;;;;;5041895;28;20039;-76
2022/03/17 11:32:08;;;;;;;0.17;0.17;;;11.00;99.90;;;;;;5038681;28;20025;-74
2022/03/17 11:34:42;;;;;;;0.82;0.45;;;11.10;99.90;;;;;;5037577;28;20467;-77
2022/03/17 11:37:16;;;;;;;0.10;0.10;;;11.20;99.90;;;;;;5047116;28;20070;-75
2022/03/17 11:39:51;;;;;;;2.83;1.65;;;11.40;99.90;;;;;;5040761;28;20028;-75
2022/03/17 11:42:30;;;;;;;0.25;0.25;;;11.40;99.90;;;;;;5048841;28;20041;-73
2022/03/17 11:45:09;;;;;;;1.20;1.10;;;11.40;99.90;;;;;;5046550;28;20495;-74
2022/03/17 11:47:44;;;;;;;0.00;0.00;;;11.30;99.90;;;;;;5032408;28;20028;-73
2022/03/17 11:50:33;;;;;;;0.32;0.17;;;11.40;99.90;;;;;;5034887;28;20035;-74
2022/03/17 11:53:29;;;;;;;1.70;0.65;;;11.50;99.90;;;;;;5029223;28;20056;-74
2022/03/17 11:55:56;;;;;;;0.47;0.43;;;11.60;99.90;;;;;;5039114;28;20029;-75
2022/03/17 11:58:42;;;;;;;4.72;1.25;;;11.50;99.90;;;;;;5042070;28;20044;-75
2022/03/17 12:01:30;;;;;;;5.70;0.50;;;11.70;99.90;;;;;;5047199;28;20088;-73
2022/03/17 12:03:58;;;;;;;0.13;0.13;;;11.50;99.90;;;;;;5041765;28;20036;-73
2022/03/17 12:06:35;;;;;;;0.45;0.45;;;11.50;99.90;;;;;;5036806;28;20079;-73
2022/03/17 12:09:11;;;;;;;0.73;0.60;;;11.50;99.90;;;;;;5049218;28;20029;-74
2022/03/17 12:11:46;;;;;;;0.57;0.57;;;11.60;99.90;;;;;;5044750;28;20017;-73
2022/03/17 12:14:16;;;;;;;0.15;0.15;;;11.50;99.90;;;;;;5049877;28;20522;-73
2022/03/17 12:17:08;;;;;;;0.10;0.10;;;11.60;99.90;;;;;;5046755;28;20103;-73
2022/03/17 12:19:48;;;;;;;7.80;2.63;;;11.70;99.90;;;;;;5043608;28;20516;-73
2022/03/17 12:22:18;;;;;;;1.10;0.50;;;11.70;99.90;;;;;;5048294;28;20037;-74
2022/03/17 12:25:01;;;;;;;0.17;0.17;;;11.70;99.90;;;;;;5049675;28;20107;-73
2022/03/17 12:27:33;;;;;;;0.00;0.00;;;11.80;99.90;;;;;;5055832;28;20036;-73
2022/03/17 12:30:12;;;;;;;0.00;0.00;;;11.90;99.90;;;;;;5048220;28;20025;-73
2022/03/17 12:32:52;;;;;;;2.67;0.70;;;11.80;99.90;;;;;;5042346;28;20757;-73
2022/03/17 12:35:19;;;;;;;0.00;0.00;;;12.10;99.90;;;;;;5043873;28;20037;-73
2022/03/17 12:37:45;;;;;;;0.25;0.25;;;12.10;99.90;;;;;;5053705;28;20029;-73
2022/03/17 12:40:19;;;;;;;0.08;0.08;;;12.10;99.90;;;;;;5052739;28;20024;-73
2022/03/17 12:42:50;;;;;;;0.03;0.03;;;12.10;99.90;;;;;;5050132;28;20049;-73
2022/03/17 12:45:18;;;;;;;0.00;0.00;;;12.10;99.90;;;;;;5049674;28;20104;-73
2022/03/17 12:47:50;;;;;;;0.05;0.05;;;12.10;99.90;;;;;;5050575;28;20036;-73
2022/03/17 12:50:18;;;;;;;6.03;1.73;;;12.10;99.90;;;;;;5054647;28;20033;-74
2022/03/17 12:52:46;;;;;;;0.15;0.15;;;12.00;99.90;;;;;;5046582;28;20074;-73
2022/03/17 12:55:14;;;;;;;2.53;1.10;;;12.10;99.90;;;;;;5049586;28;20550;-74
2022/03/17 12:57:41;;;;;;;0.00;0.00;;;12.10;99.90;;;;;;5048604;28;20029;-74
2022/03/17 13:00:12;;;;;;;0.00;0.00;;;12.20;99.90;;;;;;5050194;28;20017;-73
2022/03/17 13:02:47;;;;;;;0.25;0.25;;;12.30;99.90;;;;;;5045969;28;20075;-73
2022/03/17 13:08:00;;;;;;;0.10;0.10;;;12.50;99.90;;;;;;5042624;28;20036;-73
2022/03/17 13:10:27;;;;;;;1.88;0.38;;;12.50;99.90;;;;;;5049541;28;20102;-73
2022/03/17 13:15:42;;;;;;;0.00;0.00;;;12.40;99.90;;;;;;5051884;28;20070;-73
2022/03/17 13:18:10;;;;;;;0.00;0.00;;;12.40;99.90;;;;;;5055292;28;20025;-73
2022/03/17 13:20:36;;;;;;;1.13;1.02;;;12.50;99.90;;;;;;5054001;28;20492;-72